createdAt,value
2023-02-21T00:00:09.933Z,1.20
2023-02-21T00:00:41.248Z,1.10
2023-02-21T00:01:14.345Z,1.02
2023-02-21T00:01:45.885Z,1.10
2023-02-21T00:02:17.359Z,1.88
2023-02-21T00:02:48.711Z,1.60
2023-02-21T00:03:20.091Z,1.60
2023-02-21T00:03:51.428Z,1.92
2023-02-21T00:04:22.762Z,1.48
2023-02-21T00:04:54.102Z,0.98
2023-02-21T00:05:25.520Z,1.80
2023-02-21T00:05:56.943Z,1.10
2023-02-21T00:06:28.309Z,1.50
2023-02-21T00:06:59.639Z,1.48
2023-02-21T00:07:30.988Z,1.10
2023-02-21T00:08:02.348Z,1.20
2023-02-21T00:08:33.707Z,1.48
2023-02-21T00:09:05.101Z,1.00
2023-02-21T00:09:38.586Z,1.40
2023-02-21T00:10:11.736Z,0.75
2023-02-21T00:10:43.113Z,1.20
2023-02-21T00:11:14.776Z,2.00
2023-02-21T00:11:46.269Z,1.88
2023-02-21T00:12:17.618Z,2.00
2023-02-21T00:12:48.946Z,1.73
2023-02-21T00:13:20.284Z,1.70
2023-02-21T00:13:51.627Z,1.38
2023-02-21T00:14:22.966Z,1.43
2023-02-21T00:14:54.308Z,1.80
2023-02-21T00:15:25.618Z,1.60
2023-02-21T00:15:56.972Z,1.02
2023-02-21T00:16:28.407Z,1.17
2023-02-21T00:16:59.805Z,1.23
2023-02-21T00:17:31.128Z,1.20
2023-02-21T00:18:02.492Z,1.38
2023-02-21T00:18:37.376Z,1.10
2023-02-21T00:19:09.025Z,1.67
2023-02-21T00:19:40.785Z,2.40
2023-02-21T00:20:12.194Z,1.73
2023-02-21T00:20:43.516Z,1.63
2023-02-21T00:21:15.089Z,2.30
2023-02-21T00:21:46.543Z,1.83
2023-02-21T00:22:17.872Z,2.67
2023-02-21T00:22:49.200Z,2.10
2023-02-21T00:23:20.560Z,2.72
2023-02-21T00:23:51.935Z,2.33
2023-02-21T00:24:23.314Z,1.52
2023-02-21T00:24:54.665Z,1.52
2023-02-21T00:25:26.037Z,1.38
2023-02-21T00:25:57.397Z,2.38
2023-02-21T00:26:28.787Z,1.67
2023-02-21T00:27:00.152Z,1.50
2023-02-21T00:27:31.542Z,2.20
2023-02-21T00:28:02.903Z,2.13
2023-02-21T00:28:34.257Z,1.33
2023-02-21T00:29:05.712Z,1.10
2023-02-21T00:29:37.067Z,0.90
2023-02-21T00:30:08.848Z,0.90
2023-02-21T00:30:40.319Z,1.15
2023-02-21T00:31:11.755Z,0.63
2023-02-21T00:31:43.140Z,1.00
2023-02-21T00:32:14.669Z,0.77
2023-02-21T00:32:46.087Z,0.57
2023-02-21T00:33:17.544Z,1.23
2023-02-21T00:33:48.884Z,0.45
2023-02-21T00:34:20.216Z,0.50
2023-02-21T00:34:51.561Z,0.45
2023-02-21T00:35:22.896Z,0.60
2023-02-21T00:35:54.247Z,0.30
2023-02-21T00:36:25.573Z,0.50
2023-02-21T00:36:56.895Z,0.50
2023-02-21T00:37:28.509Z,0.70
2023-02-21T00:37:59.906Z,0.65
2023-02-21T00:38:31.296Z,0.40
2023-02-21T00:39:02.645Z,0.13
2023-02-21T00:39:34.007Z,0.30
2023-02-21T00:40:06.049Z,0.52
2023-02-21T00:40:37.414Z,0.50
2023-02-21T00:41:09.285Z,0.35
2023-02-21T00:41:40.647Z,0.40
2023-02-21T00:42:11.982Z,0.40
2023-02-21T00:42:43.305Z,0.30
2023-02-21T00:43:14.676Z,1.20
2023-02-21T00:43:46.013Z,0.20
2023-02-21T00:44:17.541Z,0.35
2023-02-21T00:44:48.964Z,0.47
2023-02-21T00:45:20.353Z,0.52
2023-02-21T00:45:51.677Z,0.50
2023-02-21T00:46:23.115Z,0.22
2023-02-21T00:46:54.462Z,0.60
2023-02-21T00:47:25.811Z,0.55
2023-02-21T00:47:57.211Z,0.40
2023-02-21T00:48:28.554Z,0.67
2023-02-21T00:48:59.870Z,0.30
2023-02-21T00:49:31.212Z,0.60
2023-02-21T00:50:02.562Z,0.50
2023-02-21T00:50:33.995Z,0.68
2023-02-21T00:51:05.447Z,0.30
2023-02-21T00:51:36.765Z,0.35
2023-02-21T00:52:08.108Z,0.47
2023-02-21T00:52:39.438Z,0.57
2023-02-21T00:53:10.753Z,0.40
2023-02-21T00:53:42.129Z,0.40
2023-02-21T00:54:13.453Z,0.45
2023-02-21T00:54:44.918Z,0.47
2023-02-21T00:55:16.286Z,2.38
2023-02-21T00:55:47.631Z,0.50
2023-02-21T00:56:19.037Z,0.35
2023-02-21T00:56:50.391Z,0.40
2023-02-21T00:57:21.827Z,0.30
2023-02-21T00:57:53.171Z,0.38
2023-02-21T00:58:24.505Z,0.40
2023-02-21T00:58:55.920Z,0.45
2023-02-21T00:59:27.248Z,0.68
2023-02-21T00:59:58.637Z,0.40
2023-02-21T01:00:29.991Z,0.50
2023-02-21T01:01:01.427Z,0.40
2023-02-21T01:01:32.808Z,0.30
2023-02-21T01:02:04.308Z,0.38
2023-02-21T01:02:35.719Z,0.40
2023-02-21T01:03:07.411Z,0.40
2023-02-21T01:03:38.752Z,0.60
2023-02-21T01:04:10.078Z,0.40
2023-02-21T01:04:41.504Z,0.32
2023-02-21T01:05:12.871Z,0.63
2023-02-21T01:05:44.242Z,0.40
2023-02-21T01:06:15.846Z,0.30
2023-02-21T01:06:50.099Z,0.40
2023-02-21T01:07:21.484Z,0.50
2023-02-21T01:07:52.817Z,1.20
2023-02-21T01:08:24.238Z,0.45
2023-02-21T01:08:55.572Z,0.80
2023-02-21T01:09:26.958Z,0.40
2023-02-21T01:09:58.304Z,0.57
2023-02-21T01:10:29.657Z,0.67
2023-02-21T01:11:01.089Z,0.80
2023-02-21T01:11:32.969Z,0.95
2023-02-21T01:12:04.438Z,1.27
2023-02-21T01:12:35.758Z,1.33
2023-02-21T01:13:07.166Z,1.35
2023-02-21T01:13:38.485Z,1.88
2023-02-21T01:14:09.835Z,1.33
2023-02-21T01:14:41.164Z,1.17
2023-02-21T01:15:12.528Z,2.40
2023-02-21T01:15:44.062Z,1.73
2023-02-21T01:16:15.457Z,1.30
2023-02-21T01:16:46.887Z,1.25
2023-02-21T01:17:18.206Z,1.45
2023-02-21T01:17:49.556Z,1.50
2023-02-21T01:18:20.906Z,1.05
2023-02-21T01:18:52.401Z,1.20
2023-02-21T01:19:26.490Z,2.45
2023-02-21T01:20:00.076Z,2.13
2023-02-21T01:20:31.472Z,1.67
2023-02-21T01:21:02.798Z,1.42
2023-02-21T01:21:34.133Z,1.02
2023-02-21T01:22:05.692Z,1.20
2023-02-21T01:22:37.138Z,1.27
2023-02-21T01:23:08.515Z,1.25
2023-02-21T01:23:39.851Z,1.00
2023-02-21T01:24:12.998Z,2.17
2023-02-21T01:24:44.449Z,1.60
2023-02-21T01:25:15.822Z,2.03
2023-02-21T01:25:47.158Z,1.50
2023-02-21T01:26:18.592Z,1.95
2023-02-21T01:26:49.969Z,2.17
2023-02-21T01:27:21.340Z,2.40
2023-02-21T01:27:54.785Z,1.58
2023-02-21T01:28:26.119Z,1.50
2023-02-21T01:28:57.454Z,1.55
2023-02-21T01:29:28.808Z,1.52
2023-02-21T01:30:00.138Z,1.85
2023-02-21T01:30:31.528Z,1.33
2023-02-21T01:31:02.954Z,1.25
2023-02-21T01:31:34.352Z,0.88
2023-02-21T01:32:05.712Z,1.75
2023-02-21T01:32:37.183Z,1.50
2023-02-21T01:33:08.549Z,0.80
2023-02-21T01:33:40.575Z,1.20
2023-02-21T01:34:11.938Z,0.60
2023-02-21T01:34:43.254Z,0.95
2023-02-21T01:35:14.614Z,1.10
2023-02-21T01:35:45.962Z,0.82
2023-02-21T01:36:17.290Z,0.80
2023-02-21T01:36:48.638Z,0.80
2023-02-21T01:37:19.969Z,1.00
2023-02-21T01:37:51.316Z,1.30
2023-02-21T01:38:22.644Z,0.88
2023-02-21T01:38:54.000Z,0.55
2023-02-21T01:39:25.404Z,0.50
2023-02-21T01:39:56.739Z,0.93
2023-02-21T01:40:28.063Z,0.82
2023-02-21T01:40:59.391Z,0.87
2023-02-21T01:41:30.736Z,0.70
2023-02-21T01:42:02.134Z,0.52
2023-02-21T01:42:33.470Z,0.43
2023-02-21T01:43:13.930Z,0.60
2023-02-21T01:43:58.006Z,0.88
2023-02-21T01:44:35.262Z,0.80
2023-02-21T01:45:18.610Z,0.98
2023-02-21T01:45:50.944Z,0.65
2023-02-21T01:46:22.366Z,0.40
2023-02-21T01:46:53.886Z,0.30
2023-02-21T01:47:25.489Z,0.40
2023-02-21T01:47:56.839Z,0.70
2023-02-21T01:48:28.949Z,0.70
2023-02-21T01:49:02.158Z,0.77
2023-02-21T01:49:35.016Z,0.65
2023-02-21T01:50:10.616Z,0.70
2023-02-21T01:50:42.049Z,0.73
2023-02-21T01:51:15.149Z,0.63
2023-02-21T01:51:46.759Z,0.77
2023-02-21T01:52:18.317Z,0.70
2023-02-21T01:52:49.960Z,0.90
2023-02-21T01:53:25.492Z,0.52
2023-02-21T01:53:57.173Z,0.90
2023-02-21T01:54:32.212Z,0.30
2023-02-21T01:55:04.325Z,0.70
2023-02-21T01:55:38.953Z,0.68
2023-02-21T01:56:10.516Z,1.17
2023-02-21T01:56:41.918Z,0.55
2023-02-21T01:57:14.040Z,0.60
2023-02-21T01:57:45.771Z,0.40
2023-02-21T01:58:17.706Z,0.60
2023-02-21T01:58:50.937Z,0.80
2023-02-21T01:59:23.283Z,0.40
2023-02-21T01:59:56.637Z,0.65
2023-02-21T02:00:27.979Z,1.20
2023-02-21T02:00:59.308Z,0.50
2023-02-21T02:01:46.778Z,0.35
2023-02-21T02:02:30.551Z,0.88
2023-02-21T02:03:04.230Z,1.45
2023-02-21T02:03:36.227Z,0.50
2023-02-21T02:04:07.590Z,0.55
2023-02-21T02:04:39.320Z,0.40
2023-02-21T02:05:11.328Z,0.40
2023-02-21T02:05:47.722Z,0.80
2023-02-21T02:06:19.343Z,0.90
2023-02-21T02:06:51.074Z,0.60
2023-02-21T02:07:22.443Z,0.30
2023-02-21T02:07:54.185Z,0.40
2023-02-21T02:08:27.606Z,0.60
2023-02-21T02:08:58.946Z,0.50
2023-02-21T02:09:30.269Z,0.90
2023-02-21T02:10:01.666Z,0.40
2023-02-21T02:10:33.002Z,0.50
2023-02-21T02:11:10.828Z,0.40
2023-02-21T02:11:57.444Z,0.60
2023-02-21T02:12:37.801Z,0.40
2023-02-21T02:13:15.178Z,0.60
2023-02-21T02:13:55.741Z,0.22
2023-02-21T02:14:45.905Z,1.13
2023-02-21T02:15:17.225Z,1.02
2023-02-21T02:15:54.333Z,0.57
2023-02-21T02:16:28.521Z,0.50
2023-02-21T02:17:16.538Z,0.32
2023-02-21T02:18:03.311Z,0.52
2023-02-21T02:18:37.711Z,0.40
2023-02-21T02:19:09.056Z,0.88
2023-02-21T02:19:40.461Z,0.60
2023-02-21T02:20:30.515Z,0.98
2023-02-21T02:21:07.880Z,1.10
2023-02-21T02:21:58.126Z,1.55
2023-02-21T02:22:29.457Z,1.60
2023-02-21T02:23:03.928Z,1.50
2023-02-21T02:23:44.293Z,1.60
2023-02-21T02:24:30.617Z,1.85
2023-02-21T02:25:11.138Z,1.10
2023-02-21T02:25:51.580Z,1.50
2023-02-21T02:26:41.736Z,0.50
2023-02-21T02:27:39.105Z,1.35
2023-02-21T02:28:25.579Z,0.90
2023-02-21T02:29:15.338Z,0.95
2023-02-21T02:29:52.507Z,0.88
2023-02-21T02:30:37.612Z,1.08
2023-02-21T02:31:12.107Z,0.52
2023-02-21T02:31:46.645Z,1.10
2023-02-21T02:32:27.046Z,0.40
2023-02-21T02:33:07.380Z,1.05
2023-02-21T02:33:51.064Z,1.70
2023-02-21T02:34:28.515Z,0.50
2023-02-21T02:35:08.970Z,0.63
2023-02-21T02:35:46.492Z,0.60
2023-02-21T02:36:21.616Z,0.80
2023-02-21T02:36:57.318Z,0.80
2023-02-21T02:37:47.367Z,1.02
2023-02-21T02:38:36.873Z,1.15
2023-02-21T02:39:17.882Z,1.77
2023-02-21T02:39:52.208Z,1.10
2023-02-21T02:40:42.700Z,0.90
2023-02-21T02:41:26.235Z,1.17
2023-02-21T02:42:04.690Z,1.00
2023-02-21T02:42:45.886Z,1.38
2023-02-21T02:43:17.256Z,2.08
2023-02-21T02:43:51.564Z,1.60
2023-02-21T02:44:37.512Z,1.55
2023-02-21T02:45:13.652Z,1.30
2023-02-21T02:45:56.329Z,2.03
2023-02-21T02:46:28.951Z,1.50
2023-02-21T02:47:02.072Z,1.70
2023-02-21T02:47:36.266Z,1.80
2023-02-21T02:48:15.144Z,1.33
2023-02-21T02:48:48.836Z,1.83
2023-02-21T02:49:24.738Z,1.60
2023-02-21T02:49:56.969Z,1.40
2023-02-21T02:50:29.043Z,1.50
2023-02-21T02:51:02.532Z,2.28
2023-02-21T02:51:34.971Z,1.52
2023-02-21T02:52:07.889Z,1.25
2023-02-21T02:52:49.200Z,1.50
2023-02-21T02:53:22.240Z,2.15
2023-02-21T02:53:53.797Z,1.90
2023-02-21T02:54:25.167Z,2.50
2023-02-21T02:55:00.884Z,3.28
2023-02-21T02:55:32.205Z,1.47
2023-02-21T02:56:05.848Z,3.40
2023-02-21T02:56:37.379Z,2.80
2023-02-21T02:57:09.670Z,2.45
2023-02-21T02:57:41.095Z,2.20
2023-02-21T02:58:12.593Z,1.90
2023-02-21T02:58:49.693Z,1.90
2023-02-21T02:59:22.753Z,1.73
2023-02-21T02:59:54.206Z,1.48
2023-02-21T03:00:25.657Z,0.70
2023-02-21T03:01:16.207Z,1.08
2023-02-21T03:01:47.755Z,1.13
2023-02-21T03:02:24.955Z,0.57
2023-02-21T03:02:56.313Z,1.05
2023-02-21T03:03:45.714Z,0.73
2023-02-21T03:04:25.967Z,0.52
2023-02-21T03:05:16.121Z,0.80
2023-02-21T03:06:13.504Z,1.55
2023-02-21T03:06:47.973Z,0.73
2023-02-21T03:07:39.805Z,0.88
2023-02-21T03:08:13.888Z,0.63
2023-02-21T03:08:45.207Z,1.20
2023-02-21T03:09:16.525Z,1.00
2023-02-21T03:09:53.969Z,0.50
2023-02-21T03:10:31.381Z,0.47
2023-02-21T03:11:11.018Z,0.70
2023-02-21T03:11:59.808Z,0.98
2023-02-21T03:12:43.337Z,0.60
2023-02-21T03:13:17.522Z,1.20
2023-02-21T03:13:55.011Z,1.10
2023-02-21T03:14:28.928Z,1.52
2023-02-21T03:15:00.299Z,1.10
2023-02-21T03:15:37.526Z,1.10
2023-02-21T03:16:11.693Z,1.85
2023-02-21T03:16:51.549Z,1.80
2023-02-21T03:17:24.275Z,2.53
2023-02-21T03:18:14.336Z,2.63
2023-02-21T03:18:54.748Z,3.07
2023-02-21T03:19:28.497Z,2.70
2023-02-21T03:20:00.471Z,2.90
2023-02-21T03:20:33.241Z,3.58
2023-02-21T03:21:08.788Z,2.97
2023-02-21T03:21:42.240Z,3.00
2023-02-21T03:22:15.308Z,3.70
2023-02-21T03:22:47.624Z,2.67
2023-02-21T03:23:19.432Z,2.65
2023-02-21T03:23:52.578Z,3.40
2023-02-21T03:24:25.065Z,3.33
2023-02-21T03:24:58.286Z,2.90
2023-02-21T03:25:30.622Z,3.65
2023-02-21T03:26:04.472Z,3.50
2023-02-21T03:26:37.200Z,3.38
2023-02-21T03:27:09.406Z,5.05
2023-02-21T03:27:41.822Z,3.37
2023-02-21T03:28:13.179Z,3.75
2023-02-21T03:28:45.025Z,2.92
2023-02-21T03:29:17.137Z,2.97
2023-02-21T03:29:50.156Z,2.50
2023-02-21T03:30:22.087Z,2.60
2023-02-21T03:30:54.973Z,1.80
2023-02-21T03:31:29.385Z,1.03
2023-02-21T03:32:19.680Z,1.20
2023-02-21T03:32:52.177Z,1.60
2023-02-21T03:33:23.520Z,2.20
2023-02-21T03:33:54.893Z,1.63
2023-02-21T03:34:27.357Z,1.35
2023-02-21T03:34:58.786Z,0.90
2023-02-21T03:35:30.318Z,0.88
2023-02-21T03:36:03.670Z,0.80
2023-02-21T03:36:36.920Z,1.10
2023-02-21T03:37:10.226Z,0.98
2023-02-21T03:37:45.799Z,1.00
2023-02-21T03:38:17.141Z,0.95
2023-02-21T03:38:48.475Z,1.20
2023-02-21T03:39:19.810Z,1.05
2023-02-21T03:39:51.150Z,1.10
2023-02-21T03:40:23.990Z,0.75
2023-02-21T03:40:55.333Z,1.05
2023-02-21T03:41:26.723Z,0.95
2023-02-21T03:41:58.114Z,1.17
2023-02-21T03:42:29.456Z,1.20
2023-02-21T03:43:01.806Z,1.10
2023-02-21T03:43:33.155Z,1.60
2023-02-21T03:44:04.547Z,0.80
2023-02-21T03:44:35.923Z,1.20
2023-02-21T03:45:07.449Z,0.43
2023-02-21T03:45:38.801Z,1.60
2023-02-21T03:46:10.162Z,0.70
2023-02-21T03:46:41.576Z,0.45
2023-02-21T03:47:12.946Z,0.75
2023-02-21T03:47:44.668Z,0.55
2023-02-21T03:48:26.063Z,0.45
2023-02-21T03:49:02.630Z,0.50
2023-02-21T03:49:34.000Z,0.47
2023-02-21T03:50:05.578Z,0.52
2023-02-21T03:50:36.897Z,0.50
2023-02-21T03:51:08.232Z,0.33
2023-02-21T03:51:39.555Z,0.43
2023-02-21T03:52:11.767Z,0.50
2023-02-21T03:52:43.132Z,0.30
2023-02-21T03:53:14.458Z,0.93
2023-02-21T03:53:45.826Z,0.57
2023-02-21T03:54:17.237Z,0.38
2023-02-21T03:54:48.645Z,0.38
2023-02-21T03:55:20.381Z,0.60
2023-02-21T03:55:51.751Z,0.75
2023-02-21T03:56:26.160Z,0.73
2023-02-21T03:56:59.528Z,0.52
2023-02-21T03:57:30.985Z,0.38
2023-02-21T03:58:02.327Z,0.40
2023-02-21T03:58:33.679Z,0.50
2023-02-21T03:59:05.061Z,0.50
2023-02-21T03:59:36.412Z,1.10
2023-02-21T04:00:08.098Z,0.43
2023-02-21T04:00:39.473Z,0.27
2023-02-21T04:01:10.835Z,0.30
2023-02-21T04:01:42.245Z,0.40
2023-02-21T04:02:13.766Z,0.32
2023-02-21T04:02:45.098Z,0.75
2023-02-21T04:03:16.454Z,0.50
2023-02-21T04:03:47.786Z,0.38
2023-02-21T04:04:19.268Z,0.30
2023-02-21T04:04:50.632Z,0.50
2023-02-21T04:05:21.969Z,0.10
2023-02-21T04:05:53.286Z,0.30
2023-02-21T04:06:24.684Z,0.60
2023-02-21T04:06:56.006Z,0.50
2023-02-21T04:07:27.337Z,0.32
2023-02-21T04:07:58.664Z,0.82
2023-02-21T04:08:30.003Z,0.50
2023-02-21T04:09:01.315Z,0.43
2023-02-21T04:09:32.661Z,0.30
2023-02-21T04:10:04.120Z,0.35
2023-02-21T04:10:38.188Z,0.40
2023-02-21T04:11:19.934Z,0.60
2023-02-21T04:11:51.254Z,0.60
2023-02-21T04:12:22.653Z,0.38
2023-02-21T04:12:54.049Z,0.47
2023-02-21T04:13:25.414Z,0.35
2023-02-21T04:13:56.776Z,0.50
2023-02-21T04:14:28.156Z,0.50
2023-02-21T04:14:59.521Z,0.60
2023-02-21T04:15:30.863Z,0.38
2023-02-21T04:16:02.296Z,0.40
2023-02-21T04:16:33.693Z,0.60
2023-02-21T04:17:05.049Z,0.90
2023-02-21T04:17:36.392Z,0.45
2023-02-21T04:18:07.744Z,0.30
2023-02-21T04:18:39.069Z,1.58
2023-02-21T04:19:10.402Z,0.40
2023-02-21T04:19:41.783Z,0.30
2023-02-21T04:20:14.332Z,0.40
2023-02-21T04:20:45.696Z,0.50
2023-02-21T04:21:20.131Z,0.52
2023-02-21T04:21:51.453Z,0.60
2023-02-21T04:22:22.796Z,0.35
2023-02-21T04:23:02.903Z,0.70
2023-02-21T04:23:35.004Z,0.60
2023-02-21T04:24:06.346Z,0.30
2023-02-21T04:24:37.690Z,0.43
2023-02-21T04:25:09.075Z,0.47
2023-02-21T04:25:40.415Z,0.40
2023-02-21T04:26:11.810Z,0.32
2023-02-21T04:26:43.169Z,0.73
2023-02-21T04:27:14.963Z,0.40
2023-02-21T04:27:46.302Z,0.30
2023-02-21T04:28:17.671Z,0.35
2023-02-21T04:28:49.027Z,0.40
2023-02-21T04:29:20.407Z,0.38
2023-02-21T04:29:51.732Z,0.57
2023-02-21T04:30:23.126Z,0.27
2023-02-21T04:30:54.486Z,0.65
2023-02-21T04:31:25.860Z,0.40
2023-02-21T04:31:57.381Z,0.77
2023-02-21T04:32:28.792Z,0.30
2023-02-21T04:33:00.122Z,0.60
2023-02-21T04:33:31.449Z,0.77
2023-02-21T04:34:11.750Z,0.53
2023-02-21T04:34:43.788Z,0.30
2023-02-21T04:35:15.120Z,0.30
2023-02-21T04:35:46.449Z,0.50
2023-02-21T04:36:17.785Z,0.63
2023-02-21T04:36:49.175Z,0.52
2023-02-21T04:37:20.576Z,0.68
2023-02-21T04:37:51.936Z,0.85
2023-02-21T04:38:25.244Z,0.40
2023-02-21T04:38:56.582Z,2.83
2023-02-21T04:39:27.899Z,0.57
2023-02-21T04:39:59.256Z,0.70
2023-02-21T04:40:30.600Z,0.40
2023-02-21T04:41:01.929Z,0.80
2023-02-21T04:41:33.235Z,1.10
2023-02-21T04:42:04.562Z,0.47
2023-02-21T04:42:35.929Z,0.82
2023-02-21T04:43:07.323Z,0.32
2023-02-21T04:43:38.653Z,0.38
2023-02-21T04:44:09.978Z,0.50
2023-02-21T04:44:42.829Z,0.52
2023-02-21T04:45:16.079Z,0.50
2023-02-21T04:45:47.485Z,0.68
2023-02-21T04:46:18.885Z,0.80
2023-02-21T04:46:50.210Z,0.65
2023-02-21T04:47:21.627Z,0.50
2023-02-21T04:47:52.937Z,0.70
2023-02-21T04:48:24.318Z,0.70
2023-02-21T04:48:55.653Z,0.80
2023-02-21T04:49:27.173Z,0.90
2023-02-21T04:49:58.477Z,0.82
2023-02-21T04:50:29.787Z,0.80
2023-02-21T04:51:14.825Z,0.60
2023-02-21T04:51:46.764Z,0.95
2023-02-21T04:52:18.691Z,1.10
2023-02-21T04:52:50.069Z,0.60
2023-02-21T04:53:21.422Z,0.95
2023-02-21T04:53:53.202Z,0.85
2023-02-21T04:54:24.560Z,1.13
2023-02-21T04:54:55.918Z,0.82
2023-02-21T04:55:27.238Z,1.20
2023-02-21T04:55:58.572Z,0.73
2023-02-21T04:56:29.944Z,1.00
2023-02-21T04:57:01.320Z,1.50
2023-02-21T04:57:32.814Z,1.00
2023-02-21T04:58:04.236Z,0.90
2023-02-21T04:58:44.809Z,1.25
2023-02-21T04:59:16.807Z,1.10
2023-02-21T04:59:48.158Z,1.02
2023-02-21T05:00:19.527Z,1.00
2023-02-21T05:00:50.934Z,1.08
2023-02-21T05:01:22.649Z,0.80
2023-02-21T05:01:53.969Z,1.83
2023-02-21T05:02:25.673Z,1.48
2023-02-21T05:02:57.073Z,1.80
2023-02-21T05:03:28.533Z,0.68
2023-02-21T05:04:00.371Z,1.00
2023-02-21T05:04:31.933Z,1.17
2023-02-21T05:05:03.378Z,1.17
2023-02-21T05:05:34.745Z,1.00
2023-02-21T05:06:06.276Z,1.48
2023-02-21T05:06:37.670Z,1.08
2023-02-21T05:07:09.010Z,1.00
2023-02-21T05:07:43.399Z,1.48
2023-02-21T05:08:14.862Z,0.75
2023-02-21T05:08:46.234Z,0.90
2023-02-21T05:09:17.601Z,1.23
2023-02-21T05:09:48.909Z,1.42
2023-02-21T05:10:20.237Z,1.20
2023-02-21T05:10:51.583Z,1.50
2023-02-21T05:11:23.555Z,1.40
2023-02-21T05:11:54.896Z,1.88
2023-02-21T05:12:26.245Z,1.15
2023-02-21T05:12:57.591Z,1.13
2023-02-21T05:13:28.983Z,1.67
2023-02-21T05:14:00.393Z,1.80
2023-02-21T05:14:31.732Z,1.50
2023-02-21T05:15:03.346Z,2.08
2023-02-21T05:15:34.865Z,1.30
2023-02-21T05:16:06.400Z,1.10
2023-02-21T05:16:37.784Z,1.17
2023-02-21T05:17:09.194Z,1.67
2023-02-21T05:17:40.752Z,1.58
2023-02-21T05:18:12.117Z,2.85
2023-02-21T05:18:44.129Z,2.65
2023-02-21T05:19:19.583Z,1.35
2023-02-21T05:19:50.992Z,0.90
2023-02-21T05:20:22.378Z,2.10
2023-02-21T05:20:53.733Z,1.20
2023-02-21T05:21:25.140Z,1.30
2023-02-21T05:21:57.708Z,1.30
2023-02-21T05:22:29.072Z,1.52
2023-02-21T05:23:08.255Z,1.30
2023-02-21T05:23:44.673Z,1.55
2023-02-21T05:24:16.006Z,1.65
2023-02-21T05:24:47.495Z,1.27
2023-02-21T05:25:19.680Z,1.10
2023-02-21T05:25:51.011Z,1.40
2023-02-21T05:26:24.242Z,1.60
2023-02-21T05:26:56.025Z,1.77
2023-02-21T05:27:27.356Z,1.55
2023-02-21T05:27:58.701Z,1.38
2023-02-21T05:28:30.061Z,0.98
2023-02-21T05:29:01.456Z,1.00
2023-02-21T05:29:32.857Z,1.70
2023-02-21T05:30:04.466Z,1.27
2023-02-21T05:30:35.901Z,1.67
2023-02-21T05:31:08.024Z,1.20
2023-02-21T05:31:39.400Z,1.15
2023-02-21T05:32:10.809Z,1.10
2023-02-21T05:32:42.306Z,1.45
2023-02-21T05:33:13.630Z,1.30
2023-02-21T05:33:44.978Z,1.10
2023-02-21T05:34:16.590Z,1.40
2023-02-21T05:34:48.057Z,1.98
2023-02-21T05:35:19.484Z,1.25
2023-02-21T05:35:50.844Z,2.10
2023-02-21T05:36:22.232Z,1.50
2023-02-21T05:36:53.577Z,1.85
2023-02-21T05:37:25.128Z,1.63
2023-02-21T05:37:56.477Z,1.27
2023-02-21T05:38:27.826Z,1.30
2023-02-21T05:38:59.217Z,1.50
2023-02-21T05:39:30.714Z,1.75
2023-02-21T05:40:02.372Z,1.67
2023-02-21T05:40:33.821Z,2.03
2023-02-21T05:41:06.773Z,1.63
2023-02-21T05:41:38.119Z,1.45
2023-02-21T05:42:09.536Z,1.77
2023-02-21T05:42:42.214Z,1.80
2023-02-21T05:43:13.734Z,1.63
2023-02-21T05:43:47.557Z,1.98
2023-02-21T05:44:18.919Z,2.33
2023-02-21T05:44:50.278Z,2.35
2023-02-21T05:45:21.609Z,2.03
2023-02-21T05:45:52.994Z,1.30
2023-02-21T05:46:25.768Z,1.50
2023-02-21T05:46:57.078Z,1.95
2023-02-21T05:47:28.401Z,1.77
2023-02-21T05:47:59.853Z,1.40
2023-02-21T05:48:31.171Z,1.55
2023-02-21T05:49:03.896Z,1.80
2023-02-21T05:49:35.251Z,2.45
2023-02-21T05:50:06.733Z,1.58
2023-02-21T05:50:38.072Z,2.05
2023-02-21T05:51:09.438Z,2.17
2023-02-21T05:51:42.966Z,1.98
2023-02-21T05:52:15.311Z,2.83
2023-02-21T05:52:46.661Z,2.33
2023-02-21T05:53:17.980Z,2.05
2023-02-21T05:53:49.940Z,2.20
2023-02-21T05:54:21.795Z,1.92
2023-02-21T05:54:53.186Z,2.05
2023-02-21T05:55:24.567Z,2.50
2023-02-21T05:55:55.906Z,2.05
2023-02-21T05:56:27.251Z,2.55
2023-02-21T05:56:58.568Z,2.42
2023-02-21T05:57:29.907Z,2.17
2023-02-21T05:58:01.248Z,2.30
2023-02-21T05:58:32.602Z,2.03
2023-02-21T05:59:03.930Z,2.58
2023-02-21T05:59:35.285Z,2.47
2023-02-21T06:00:07.026Z,2.22
2023-02-21T06:00:38.388Z,2.37
2023-02-21T06:01:09.847Z,2.17
2023-02-21T06:01:41.524Z,3.22
2023-02-21T06:02:12.892Z,3.08
2023-02-21T06:02:44.269Z,2.90
2023-02-21T06:03:15.653Z,2.38
2023-02-21T06:03:47.154Z,2.45
2023-02-21T06:04:18.528Z,2.42
2023-02-21T06:04:49.889Z,3.00
2023-02-21T06:05:22.065Z,2.58
2023-02-21T06:05:53.436Z,2.22
2023-02-21T06:06:24.861Z,2.08
2023-02-21T06:06:56.408Z,2.63
2023-02-21T06:07:27.738Z,2.47
2023-02-21T06:07:59.539Z,2.38
2023-02-21T06:08:31.023Z,3.03
2023-02-21T06:09:02.732Z,2.27
2023-02-21T06:09:34.091Z,2.30
2023-02-21T06:10:05.534Z,2.10
2023-02-21T06:10:36.899Z,2.40
2023-02-21T06:11:08.226Z,2.08
2023-02-21T06:11:39.570Z,2.42
2023-02-21T06:12:10.914Z,2.57
2023-02-21T06:12:42.277Z,2.83
2023-02-21T06:13:13.618Z,2.50
2023-02-21T06:13:44.961Z,2.53
2023-02-21T06:14:20.355Z,2.10
2023-02-21T06:14:51.700Z,1.90
2023-02-21T06:15:23.052Z,2.20
2023-02-21T06:15:55.021Z,2.10
2023-02-21T06:16:26.750Z,2.65
2023-02-21T06:16:58.123Z,2.77
2023-02-21T06:17:29.483Z,2.70
2023-02-21T06:18:00.834Z,2.50
2023-02-21T06:18:32.169Z,2.67
2023-02-21T06:19:03.971Z,2.35
2023-02-21T06:19:35.285Z,2.80
2023-02-21T06:20:07.006Z,2.60
2023-02-21T06:20:38.330Z,2.78
2023-02-21T06:21:09.651Z,2.88
2023-02-21T06:21:40.969Z,2.97
2023-02-21T06:22:12.296Z,2.15
2023-02-21T06:22:43.773Z,2.78
2023-02-21T06:23:15.148Z,2.80
2023-02-21T06:23:46.566Z,2.65
2023-02-21T06:24:17.912Z,2.50
2023-02-21T06:24:51.756Z,2.95
2023-02-21T06:25:23.421Z,2.60
2023-02-21T06:25:54.755Z,2.65
2023-02-21T06:26:26.251Z,3.28
2023-02-21T06:26:57.608Z,2.85
2023-02-21T06:27:28.960Z,2.83
2023-02-21T06:28:00.373Z,2.97
2023-02-21T06:28:31.941Z,2.35
2023-02-21T06:29:04.382Z,2.83
2023-02-21T06:29:35.757Z,2.70
2023-02-21T06:30:07.292Z,3.42
2023-02-21T06:30:38.751Z,3.20
2023-02-21T06:31:10.218Z,2.72
2023-02-21T06:31:41.690Z,2.95
2023-02-21T06:32:13.271Z,2.03
2023-02-21T06:32:44.654Z,2.78
2023-02-21T06:33:15.997Z,2.70
2023-02-21T06:33:48.135Z,2.60
2023-02-21T06:34:19.530Z,2.58
2023-02-21T06:34:50.892Z,2.25
2023-02-21T06:35:22.234Z,2.72
2023-02-21T06:35:53.618Z,2.60
2023-02-21T06:36:25.935Z,2.25
2023-02-21T06:36:57.383Z,3.42
2023-02-21T06:37:28.724Z,2.92
2023-02-21T06:38:00.092Z,3.42
2023-02-21T06:38:31.528Z,3.72
2023-02-21T06:39:02.898Z,2.92
2023-02-21T06:39:34.232Z,3.65
2023-02-21T06:40:05.752Z,3.03
2023-02-21T06:40:37.115Z,2.97
2023-02-21T06:41:08.939Z,2.60
2023-02-21T06:41:40.293Z,2.92
2023-02-21T06:42:15.127Z,3.95
2023-02-21T06:42:46.528Z,3.58
2023-02-21T06:43:17.872Z,3.35
2023-02-21T06:43:49.230Z,3.17
2023-02-21T06:44:20.911Z,3.10
2023-02-21T06:44:52.263Z,2.88
2023-02-21T06:45:23.593Z,3.38
2023-02-21T06:45:55.001Z,2.88
2023-02-21T06:46:27.849Z,3.20
2023-02-21T06:46:59.240Z,2.85
2023-02-21T06:47:30.604Z,2.85
2023-02-21T06:48:02.019Z,2.50
2023-02-21T06:48:33.408Z,3.30
2023-02-21T06:49:05.028Z,2.33
2023-02-21T06:49:36.359Z,2.53
2023-02-21T06:50:10.163Z,2.70
2023-02-21T06:50:41.714Z,2.70
2023-02-21T06:51:13.503Z,2.42
2023-02-21T06:51:45.089Z,2.45
2023-02-21T06:52:16.437Z,3.25
2023-02-21T06:52:47.804Z,3.10
2023-02-21T06:53:19.195Z,2.70
2023-02-21T06:53:50.639Z,3.15
2023-02-21T06:54:22.018Z,3.17
2023-02-21T06:54:53.371Z,2.50
2023-02-21T06:55:25.751Z,3.42
2023-02-21T06:55:57.220Z,3.15
2023-02-21T06:56:28.967Z,3.08
2023-02-21T06:57:00.593Z,2.67
2023-02-21T06:57:31.948Z,3.22
2023-02-21T06:58:03.219Z,2.97
2023-02-21T06:58:34.739Z,3.45
2023-02-21T06:59:06.065Z,2.83
2023-02-21T06:59:37.416Z,2.92
2023-02-21T07:00:09.249Z,2.78
2023-02-21T07:00:40.841Z,2.83
2023-02-21T07:01:12.309Z,3.05
2023-02-21T07:01:43.792Z,2.42
2023-02-21T07:02:16.028Z,2.85
2023-02-21T07:02:47.397Z,3.05
2023-02-21T07:03:18.757Z,3.03
2023-02-21T07:03:50.086Z,3.28
2023-02-21T07:04:21.573Z,3.23
2023-02-21T07:04:52.993Z,2.90
2023-02-21T07:05:24.342Z,3.05
2023-02-21T07:05:55.678Z,3.08
2023-02-21T07:06:29.561Z,3.20
2023-02-21T07:07:01.203Z,3.55
2023-02-21T07:07:32.618Z,4.25
2023-02-21T07:08:04.475Z,3.30
2023-02-21T07:08:35.814Z,3.42
2023-02-21T07:09:07.209Z,3.47
2023-02-21T07:09:38.646Z,2.60
2023-02-21T07:10:10.541Z,2.38
2023-02-21T07:10:41.882Z,3.45
2023-02-21T07:11:13.979Z,2.95
2023-02-21T07:11:45.615Z,2.85
2023-02-21T07:12:16.964Z,3.00
2023-02-21T07:12:48.298Z,3.70
2023-02-21T07:13:21.522Z,2.87
2023-02-21T07:13:54.279Z,3.58
2023-02-21T07:14:25.717Z,2.40
2023-02-21T07:14:57.077Z,2.95
2023-02-21T07:15:28.500Z,3.08
2023-02-21T07:16:00.050Z,2.80
2023-02-21T07:16:31.445Z,2.67